Time;durP1;ratioP1;P1;durP2;ratioP2;P2;SDS_P1;SDS_P2;PMS_P1;PMS_P2;Temp;Humidity;BMP_temperature;BMP_pressure;BME280_temperature;BME280_humidity;BME280_pressure;Samples;Min_cycle;Max_cycle;Signal;HPM_P1;HPM_P2
2023/03/27 00:00:37;;;;;;;3.13;1.40;;;;;;;3.57;79.98;100001.50;6186064;23;20163;-71
2023/03/27 00:03:07;;;;;;;2.83;2.05;;;;;;;3.45;80.25;100009.91;6184942;23;20604;-71
2023/03/27 00:05:37;;;;;;;6.78;1.80;;;;;;;3.42;80.39;100010.28;6186054;23;20230;-69
2023/03/27 00:08:09;;;;;;;3.97;1.65;;;;;;;3.37;81.06;100017.19;6185621;23;20652;-72
2023/03/27 00:10:40;;;;;;;8.43;2.10;;;;;;;3.34;80.73;100014.88;6185901;23;20227;-71
2023/03/27 00:13:09;;;;;;;4.78;2.35;;;;;;;3.34;80.64;100033.59;6185810;23;20182;-70
2023/03/27 00:15:40;;;;;;;7.10;1.85;;;;;;;3.39;80.85;100033.84;6184893;23;20668;-71
2023/03/27 00:18:10;;;;;;;8.93;1.50;;;;;;;3.46;80.42;100040.19;6184606;23;20226;-72
2023/03/27 00:20:39;;;;;;;11.00;2.20;;;;;;;3.48;80.63;100048.88;6185038;23;20507;-70
2023/03/27 00:23:08;;;;;;;5.45;2.00;;;;;;;3.47;80.69;100041.84;6184809;23;20177;-70
2023/03/27 00:25:39;;;;;;;3.50;1.88;;;;;;;3.44;80.53;100039.50;6184774;23;20163;-70
2023/03/27 00:28:08;;;;;;;3.05;1.60;;;;;;;3.60;80.49;100049.28;6184373;23;20182;-70
2023/03/27 00:30:39;;;;;;;5.45;1.88;;;;;;;3.63;79.75;100054.28;6158461;23;20182;-71
2023/03/27 00:33:11;;;;;;;7.13;2.45;;;;;;;3.83;79.74;100050.09;6158630;23;20209;-72
2023/03/27 00:35:44;;;;;;;10.02;2.00;;;;;;;3.65;79.96;100053.09;6183952;23;20175;-72
2023/03/27 00:38:14;;;;;;;3.13;1.85;;;;;;;3.61;80.27;100050.94;6186909;23;20535;-72
2023/03/27 00:40:45;;;;;;;8.43;1.92;;;;;;;3.55;80.42;100057.00;6161075;23;20553;-71
2023/03/27 00:43:22;;;;;;;4.03;1.90;;;;;;;3.54;80.70;100064.19;6185312;23;20554;-71
2023/03/27 00:45:56;;;;;;;3.97;2.03;;;;;;;3.51;80.81;100061.88;6184722;23;20529;-70
2023/03/27 00:48:26;;;;;;;8.23;2.10;;;;;;;3.52;80.98;100074.25;6184919;23;20242;-69
2023/03/27 00:50:57;;;;;;;2.08;1.88;;;;;;;3.51;81.00;100072.56;6185210;23;20243;-70
2023/03/27 00:53:28;;;;;;;3.85;1.65;;;;;;;3.47;81.15;100082.81;6184708;23;20158;-71
2023/03/27 00:56:03;;;;;;;4.68;1.80;;;;;;;3.45;81.19;100086.66;6185080;23;20155;-71
2023/03/27 00:58:37;;;;;;;2.05;1.45;;;;;;;3.38;81.81;100083.03;6184726;23;20508;-72
2023/03/27 01:01:09;;;;;;;3.78;1.70;;;;;;;3.31;82.13;100084.72;6159082;23;20171;-71
2023/03/27 01:03:44;;;;;;;6.30;1.70;;;;;;;3.43;81.63;100089.53;6158013;23;20517;-72
2023/03/27 01:06:15;;;;;;;4.18;1.50;;;;;;;3.37;82.20;100100.06;6184726;23;20165;-71
2023/03/27 01:08:47;;;;;;;3.88;2.20;;;;;;;3.26;82.37;100095.13;6159041;23;20644;-71
2023/03/27 01:11:31;;;;;;;4.05;2.00;;;;;;;3.16;83.25;100095.31;6206602;23;20191;-72
2023/03/27 01:14:12;;;;;;;7.30;1.70;;;;;;;3.09;83.79;100110.41;6163294;23;20262;-72
2023/03/27 01:16:54;;;;;;;5.75;2.40;;;;;;;2.99;84.23;100110.59;6159710;23;20167;-73
2023/03/27 01:19:52;;;;;;;4.10;2.13;;;;;;;3.00;84.60;100114.91;6184889;23;20183;-70
2023/03/27 01:22:58;;;;;;;5.85;2.30;;;;;;;3.04;84.41;100118.94;6184981;23;20197;-72
2023/03/27 01:25:49;;;;;;;3.13;2.83;;;;;;;3.04;84.41;100118.94;6158719;23;20175;-70
2023/03/27 01:28:32;;;;;;;2.70;1.83;;;;;;;3.18;83.86;100125.41;6160009;23;20276;-70
2023/03/27 01:31:22;;;;;;;3.72;1.85;;;;;;;3.21;83.61;100129.56;6160077;23;20628;-72
2023/03/27 01:34:08;;;;;;;7.80;1.95;;;;;;;3.12;83.72;100130.59;6159106;23;20543;-72
2023/03/27 01:37:06;;;;;;;2.67;2.17;;;;;;;3.10;84.11;100137.97;6159479;23;20191;-72
2023/03/27 01:39:48;;;;;;;2.80;2.20;;;;;;;3.14;84.21;100139.28;6158196;23;20210;-70
2023/03/27 01:42:23;;;;;;;4.82;2.30;;;;;;;3.09;83.77;100147.00;6158546;23;20163;-71
2023/03/27 01:45:00;;;;;;;6.45;2.50;;;;;;;2.98;83.59;100141.00;6184759;23;20153;-71
2023/03/27 01:47:41;;;;;;;12.65;2.40;;;;;;;2.96;83.79;100151.03;6184799;23;20155;-70
2023/03/27 01:50:19;;;;;;;2.65;1.83;;;;;;;2.84;84.40;100144.38;6185584;23;20205;-71
2023/03/27 01:52:54;;;;;;;5.82;1.92;;;;;;;2.85;84.71;100146.06;6185264;23;20175;-70
2023/03/27 01:55:30;;;;;;;2.30;2.00;;;;;;;2.85;84.37;100148.72;6199304;23;20545;-70
2023/03/27 01:58:05;;;;;;;5.03;2.75;;;;;;;2.84;84.47;100149.72;6182918;23;20190;-70
2023/03/27 02:00:37;;;;;;;3.22;1.50;;;;;;;2.82;84.72;100151.72;6174486;23;20172;-70
2023/03/27 02:03:30;;;;;;;6.50;1.90;;;;;;;2.92;84.63;100163.06;6160418;23;20277;-72
2023/03/27 02:06:06;;;;;;;4.63;2.38;;;;;;;2.95;83.94;100157.38;6158324;23;20192;-71
2023/03/27 02:08:42;;;;;;;4.95;2.05;;;;;;;2.84;84.34;100162.25;6184504;23;20194;-70
2023/03/27 02:11:26;;;;;;;3.10;1.95;;;;;;;2.84;83.95;100160.41;6184969;23;20489;-70
2023/03/27 02:14:01;;;;;;;2.30;1.75;;;;;;;2.73;84.65;100168.78;6158075;23;20257;-70
2023/03/27 02:16:34;;;;;;;2.13;1.52;;;;;;;2.68;84.83;100179.13;6158069;23;20600;-71
2023/03/27 02:19:10;;;;;;;3.25;1.70;;;;;;;2.67;84.93;100174.78;6158179;23;20189;-72
2023/03/27 02:21:39;;;;;;;3.17;1.88;;;;;;;2.70;84.67;100182.47;6159085;23;20186;-70
2023/03/27 02:24:11;;;;;;;6.88;1.85;;;;;;;2.54;85.13;100186.00;6158503;23;20245;-71
2023/03/27 02:26:42;;;;;;;6.30;1.95;;;;;;;2.45;85.59;100194.19;6158385;23;20174;-71
2023/03/27 02:29:29;;;;;;;3.50;1.60;;;;;;;2.40;85.70;100193.84;6158510;23;20194;-73
2023/03/27 02:32:10;;;;;;;2.63;1.50;;;;;;;2.40;84.42;100191.16;6157972;23;20169;-71
2023/03/27 02:35:11;;;;;;;3.60;1.92;;;;;;;2.35;84.65;100206.84;6158271;23;20170;-71
2023/03/27 02:37:51;;;;;;;1.85;1.50;;;;;;;2.28;84.41;100205.84;6157494;23;20542;-71
2023/03/27 02:40:44;;;;;;;1.70;1.27;;;;;;;2.27;83.67;100214.88;6157814;23;20198;-72
2023/03/27 02:43:38;;;;;;;2.78;1.80;;;;;;;2.21;83.14;100231.53;6184306;23;20157;-71
2023/03/27 02:46:16;;;;;;;4.10;1.70;;;;;;;2.22;82.46;100235.88;6158195;23;20175;-72
2023/03/27 02:48:49;;;;;;;5.53;1.30;;;;;;;2.21;81.77;100236.88;6157881;23;20239;-72
2023/03/27 02:51:25;;;;;;;1.33;1.00;;;;;;;2.27;80.78;100236.22;6184369;23;20181;-71
2023/03/27 02:53:58;;;;;;;2.88;1.60;;;;;;;2.27;80.89;100246.91;6184591;23;20174;-71
2023/03/27 02:56:31;;;;;;;2.53;2.30;;;;;;;2.28;80.25;100245.88;6157688;23;20211;-72
2023/03/27 02:59:07;;;;;;;4.13;1.00;;;;;;;2.29;80.25;100253.72;6157804;23;20249;-70
2023/03/27 03:01:40;;;;;;;2.47;2.05;;;;;;;2.38;79.60;100260.75;6157853;23;20242;-70
2023/03/27 03:04:23;;;;;;;3.83;1.40;;;;;;;2.36;78.88;100257.44;6157505;23;20216;-72
2023/03/27 03:07:18;;;;;;;2.22;1.20;;;;;;;2.32;78.89;100265.94;6180463;23;20635;-69
2023/03/27 03:09:47;;;;;;;5.43;1.45;;;;;;;2.31;79.13;100261.59;6157798;23;20608;-73
2023/03/27 03:12:16;;;;;;;1.85;1.42;;;;;;;2.35;79.17;100268.25;6184483;23;20155;-71
2023/03/27 03:14:48;;;;;;;2.03;1.58;;;;;;;2.19;79.40;100272.56;6157978;23;20198;-70
2023/03/27 03:17:17;;;;;;;1.52;1.25;;;;;;;2.22;80.19;100270.59;6157596;23;20170;-69
2023/03/27 03:19:47;;;;;;;2.22;1.42;;;;;;;2.09;80.51;100282.56;6157778;23;20178;-71
2023/03/27 03:22:16;;;;;;;2.53;1.08;;;;;;;2.06;80.54;100285.56;6184305;23;20159;-72
2023/03/27 03:24:46;;;;;;;3.10;1.52;;;;;;;1.94;80.84;100291.34;6160776;23;20182;-72
2023/03/27 03:27:19;;;;;;;2.25;2.03;;;;;;;1.86;81.25;100297.47;6163107;23;20516;-72
2023/03/27 03:29:59;;;;;;;5.97;1.60;;;;;;;1.80;81.54;100295.44;6163562;23;20225;-70
2023/03/27 03:32:30;;;;;;;1.67;1.35;;;;;;;1.79;81.70;100300.97;6163255;23;20170;-72
2023/03/27 03:35:00;;;;;;;5.40;1.20;;;;;;;1.70;81.73;100314.25;6188250;23;20162;-70
2023/03/27 03:37:37;;;;;;;5.03;1.63;;;;;;;1.63;82.08;100312.38;6187192;23;20154;-70
2023/03/27 03:40:11;;;;;;;2.20;1.40;;;;;;;1.73;81.84;100311.28;6161133;23;20173;-71
2023/03/27 03:42:45;;;;;;;2.50;1.80;;;;;;;1.65;81.85;100315.72;6161192;23;20166;-71
2023/03/27 03:45:16;;;;;;;4.03;1.65;;;;;;;1.64;82.07;100324.72;6161687;23;20193;-73
2023/03/27 03:47:46;;;;;;;3.75;2.30;;;;;;;1.61;82.25;100330.38;6160603;23;20194;-71
2023/03/27 03:50:15;;;;;;;4.57;1.67;;;;;;;1.55;82.26;100325.69;6161968;23;20191;-72
2023/03/27 03:52:46;;;;;;;3.30;1.55;;;;;;;1.68;82.25;100334.09;6186517;23;20216;-71
2023/03/27 03:55:15;;;;;;;2.75;2.00;;;;;;;1.53;82.56;100333.00;6161193;23;20193;-70
2023/03/27 03:57:47;;;;;;;2.55;1.60;;;;;;;1.55;82.75;100336.34;6159969;23;20603;-70
2023/03/27 04:00:25;;;;;;;2.58;1.83;;;;;;;1.56;83.07;100346.00;6160190;23;20181;-71
2023/03/27 04:02:57;;;;;;;1.75;1.42;;;;;;;1.49;83.68;100343.16;6160730;23;20162;-69
2023/03/27 04:05:26;;;;;;;1.83;1.35;;;;;;;1.54;84.06;100346.19;6161067;23;20725;-72
2023/03/27 04:07:59;;;;;;;6.03;1.45;;;;;;;1.43;84.60;100350.94;6176972;23;20186;-72
2023/03/27 04:10:41;;;;;;;1.50;1.40;;;;;;;1.45;85.23;100346.28;6209503;23;20638;-71
2023/03/27 04:13:26;;;;;;;2.28;1.83;;;;;;;1.40;85.53;100353.91;6165300;23;20197;-71
2023/03/27 04:16:02;;;;;;;3.28;2.45;;;;;;;1.43;85.89;100348.25;6160956;23;20417;-71
2023/03/27 04:18:36;;;;;;;1.83;1.48;;;;;;;1.34;86.07;100349.19;6159759;23;20200;-72
2023/03/27 04:21:13;;;;;;;3.55;1.92;;;;;;;1.34;86.43;100373.19;6160135;23;20162;-72
2023/03/27 04:23:44;;;;;;;2.22;1.73;;;;;;;1.31;86.90;100367.16;6159625;23;20235;-71
2023/03/27 04:26:15;;;;;;;1.83;1.42;;;;;;;1.35;86.29;100377.53;6160184;23;20188;-71
2023/03/27 04:29:09;;;;;;;2.38;1.73;;;;;;;1.24;86.79;100379.47;6185366;23;20190;-71
2023/03/27 04:31:58;;;;;;;2.05;1.55;;;;;;;1.23;86.72;100382.28;6186510;23;20165;-71
2023/03/27 04:34:42;;;;;;;2.33;1.85;;;;;;;1.26;87.35;100385.44;6186548;23;20178;-70
2023/03/27 04:37:21;;;;;;;3.33;2.13;;;;;;;1.18;87.13;100393.41;6186243;23;20177;-71
2023/03/27 04:40:13;;;;;;;1.85;1.55;;;;;;;1.20;86.75;100386.09;6186170;23;20709;-71
2023/03/27 04:42:43;;;;;;;8.93;2.08;;;;;;;1.11;86.80;100397.69;6159741;23;20220;-70
2023/03/27 04:45:16;;;;;;;3.15;2.03;;;;;;;1.06;86.36;100396.47;6159403;23;20161;-71
2023/03/27 04:47:48;;;;;;;3.67;1.30;;;;;;;1.16;86.19;100392.69;6160777;23;20344;-72
2023/03/27 04:50:18;;;;;;;6.18;1.45;;;;;;;1.09;85.70;100399.66;6159949;23;20169;-71
2023/03/27 04:52:48;;;;;;;1.50;1.20;;;;;;;1.09;85.46;100399.66;6167905;23;20236;-70
2023/03/27 04:55:21;;;;;;;3.25;1.45;;;;;;;1.18;85.19;100412.06;6193699;23;20205;-71
2023/03/27 04:57:50;;;;;;;2.67;1.98;;;;;;;1.30;85.14;100405.50;6161602;23;20280;-72
2023/03/27 05:00:22;;;;;;;4.53;1.70;;;;;;;1.46;84.56;100411.94;6187176;23;20198;-71
2023/03/27 05:03:19;;;;;;;3.10;2.00;;;;;;;1.52;84.54;100417.47;6186349;23;20205;-69
2023/03/27 05:06:10;;;;;;;7.70;2.58;;;;;;;1.65;84.31;100430.41;6160695;23;20241;-69
2023/03/27 05:08:41;;;;;;;3.13;2.33;;;;;;;1.58;84.09;100432.03;6171352;23;20196;-72
2023/03/27 05:11:19;;;;;;;5.03;2.40;;;;;;;1.47;84.33;100427.78;6172168;23;20170;-70
2023/03/27 05:13:48;;;;;;;4.65;2.50;;;;;;;1.28;84.93;100436.78;6194958;23;20180;-73
2023/03/27 05:16:21;;;;;;;3.90;1.83;;;;;;;1.22;84.98;100440.06;6160020;23;20166;-71
2023/03/27 05:18:55;;;;;;;2.55;1.85;;;;;;;1.14;84.83;100449.81;6160526;23;20193;-71
2023/03/27 05:21:24;;;;;;;7.18;4.50;;;;;;;1.14;85.09;100441.81;6160224;23;20189;-70
2023/03/27 05:23:53;;;;;;;5.03;1.88;;;;;;;1.14;85.04;100449.81;6186485;23;20146;-71
2023/03/27 05:26:25;;;;;;;1.90;1.80;;;;;;;1.13;84.57;100459.66;6161205;23;20179;-71
2023/03/27 05:28:59;;;;;;;3.83;1.90;;;;;;;1.10;84.85;100457.28;6160817;23;20193;-71
2023/03/27 05:31:30;;;;;;;3.88;2.08;;;;;;;1.08;85.10;100455.75;6159914;23;20165;-70
2023/03/27 05:34:19;;;;;;;2.67;2.22;;;;;;;1.17;84.58;100465.50;6185889;23;20192;-69
2023/03/27 05:36:51;;;;;;;3.75;2.22;;;;;;;1.08;84.72;100464.59;6158629;23;20166;-70
2023/03/27 05:39:20;;;;;;;3.33;2.83;;;;;;;1.11;84.43;100460.81;6139944;23;20202;-72
2023/03/27 05:41:54;;;;;;;5.00;2.35;;;;;;;1.09;84.70;100468.94;6129012;23;20211;-73
2023/03/27 05:44:28;;;;;;;2.47;1.80;;;;;;;1.14;83.90;100479.13;6154925;23;20171;-72
2023/03/27 05:46:59;;;;;;;4.03;2.13;;;;;;;1.16;84.13;100477.97;6129487;23;20608;-73
2023/03/27 05:49:32;;;;;;;3.42;1.30;;;;;;;1.16;84.12;100483.31;6129583;23;20190;-72
2023/03/27 05:52:10;;;;;;;2.38;1.88;;;;;;;1.33;83.95;100491.47;6130065;23;20221;-71
2023/03/27 05:54:39;;;;;;;3.80;2.10;;;;;;;1.31;83.66;100496.94;6155788;23;20189;-71
2023/03/27 05:57:10;;;;;;;7.18;2.70;;;;;;;1.49;83.27;100491.63;6128935;23;20497;-72
2023/03/27 05:59:41;;;;;;;2.30;1.85;;;;;;;1.45;82.73;100506.25;6128975;23;20190;-72
2023/03/27 06:02:18;;;;;;;3.53;2.03;;;;;;;1.53;82.69;100514.31;6129879;23;20170;-69
2023/03/27 06:05:00;;;;;;;31.02;2.60;;;;;;;1.58;82.16;100510.22;6153488;23;20186;-72
2023/03/27 06:07:35;;;;;;;6.93;1.67;;;;;;;1.64;82.11;100520.28;6155855;23;20190;-70
2023/03/27 06:10:11;;;;;;;5.30;1.73;;;;;;;1.84;81.23;100523.56;6129253;23;20267;-71
2023/03/27 06:13:01;;;;;;;3.25;2.92;;;;;;;1.83;80.44;100527.25;6155976;23;20210;-71
2023/03/27 06:15:40;;;;;;;5.03;2.30;;;;;;;1.85;80.28;100527.09;6129026;23;20193;-72
2023/03/27 06:18:18;;;;;;;4.97;4.45;;;;;;;1.98;79.32;100531.03;6129240;23;20190;-72
2023/03/27 06:20:48;;;;;;;5.65;3.00;;;;;;;2.10;79.20;100536.94;6129138;23;20257;-71
2023/03/27 06:23:17;;;;;;;3.47;1.80;;;;;;;2.09;77.04;100549.44;6128770;23;20166;-69
2023/03/27 06:25:47;;;;;;;4.95;1.70;;;;;;;2.24;76.58;100551.56;6129216;23;20170;-71
2023/03/27 06:28:16;;;;;;;2.63;2.42;;;;;;;2.21;77.14;100565.22;6129258;23;20195;-73
2023/03/27 06:30:47;;;;;;;4.05;2.40;;;;;;;2.41;76.91;100558.69;6155414;23;20151;-71
2023/03/27 06:33:28;;;;;;;4.38;1.80;;;;;;;2.68;75.63;100571.84;6129924;23;20177;-71
2023/03/27 06:36:02;;;;;;;3.35;2.30;;;;;;;2.68;75.54;100563.84;6133241;23;20186;-70
2023/03/27 06:38:32;;;;;;;12.13;7.05;;;;;;;3.01;74.50;100552.28;6133585;23;20194;-71
2023/03/27 06:41:03;;;;;;;9.45;3.83;;;;;;;3.57;73.32;100563.31;6130227;23;20188;-70
2023/03/27 06:44:04;;;;;;;2.30;1.60;;;;;;;3.16;73.37;100560.53;6107334;23;20186;-70
2023/03/27 06:46:52;;;;;;;6.28;2.20;;;;;;;3.39;73.06;100572.28;6131264;23;20207;-70
2023/03/27 06:49:30;;;;;;;4.93;3.15;;;;;;;3.39;73.02;100576.78;6130747;23;20514;-70
2023/03/27 06:52:06;;;;;;;3.13;2.78;;;;;;;3.29;73.17;100578.81;6130803;23;20517;-70
2023/03/27 06:54:35;;;;;;;3.35;2.15;;;;;;;3.33;72.31;100585.50;6155687;23;20699;-71
2023/03/27 06:57:05;;;;;;;6.78;3.50;;;;;;;3.05;73.10;100588.38;6130171;23;20250;-71
2023/03/27 06:59:52;;;;;;;4.07;2.20;;;;;;;3.34;73.43;100590.66;6131634;23;20250;-71
2023/03/27 07:02:25;;;;;;;5.00;2.05;;;;;;;3.46;72.74;100584.00;6133591;23;20224;-70
2023/03/27 07:04:55;;;;;;;9.82;2.42;;;;;;;3.22;73.06;100589.28;6161153;23;20156;-71
2023/03/27 07:07:41;;;;;;;11.90;10.65;;;;;;;2.87;74.09;100600.16;6131739;23;20179;-71
2023/03/27 07:10:12;;;;;;;3.67;1.75;;;;;;;3.08;74.29;100605.13;6132319;23;20167;-72
2023/03/27 07:12:44;;;;;;;2.17;1.65;;;;;;;2.90;74.11;100603.38;6131971;23;20174;-72
2023/03/27 07:15:16;;;;;;;5.03;3.03;;;;;;;3.18;74.34;100598.66;6131501;23;20217;-71
2023/03/27 07:17:53;;;;;;;5.18;2.00;;;;;;;3.55;74.05;100606.25;6130850;23;20190;-71
2023/03/27 07:20:22;;;;;;;3.50;3.20;;;;;;;3.58;72.03;100600.59;6131049;23;20175;-72
2023/03/27 07:22:53;;;;;;;5.05;2.50;;;;;;;3.43;72.51;100605.75;6157283;23;20167;-70
2023/03/27 07:25:48;;;;;;;3.70;2.10;;;;;;;3.36;72.29;100609.22;6157352;23;20182;-72
2023/03/27 07:28:31;;;;;;;2.95;1.67;;;;;;;3.53;71.21;100612.78;6131027;23;20663;-74
2023/03/27 07:31:10;;;;;;;2.00;1.60;;;;;;;3.49;69.85;100614.94;6131194;23;20258;-71
2023/03/27 07:33:59;;;;;;;3.30;1.70;;;;;;;3.32;70.65;100631.94;6131580;23;20193;-72
2023/03/27 07:36:49;;;;;;;3.35;2.13;;;;;;;3.21;71.57;100618.88;6157237;23;20172;-71
2023/03/27 07:39:19;;;;;;;4.57;1.80;;;;;;;3.55;70.43;100630.34;6130986;23;20546;-68
2023/03/27 07:41:49;;;;;;;4.60;1.55;;;;;;;3.69;70.04;100621.69;6131222;23;20231;-71
2023/03/27 07:44:24;;;;;;;4.75;2.63;;;;;;;3.81;68.71;100623.06;6131083;23;20251;-71
2023/03/27 07:47:04;;;;;;;1.75;1.42;;;;;;;3.75;68.70;100621.03;6131147;23;20171;-71
2023/03/27 07:49:34;;;;;;;2.50;1.92;;;;;;;3.71;68.41;100627.72;6130643;23;20203;-72
2023/03/27 07:52:14;;;;;;;2.08;1.40;;;;;;;3.67;68.47;100634.41;6130212;23;20508;-70
2023/03/27 07:54:56;;;;;;;2.42;1.73;;;;;;;3.63;69.30;100629.53;6130344;23;20188;-71
2023/03/27 07:57:32;;;;;;;1.48;1.35;;;;;;;3.57;65.31;100635.53;6130998;23;20172;-70
2023/03/27 08:00:21;;;;;;;1.73;1.25;;;;;;;3.57;64.24;100647.09;6130770;23;20655;-72
2023/03/27 08:03:06;;;;;;;3.88;1.77;;;;;;;3.50;65.20;100630.00;6130468;23;20182;-72
2023/03/27 08:05:37;;;;;;;2.95;2.28;;;;;;;3.48;65.44;100634.69;6130367;23;20173;-72
2023/03/27 08:08:11;;;;;;;3.08;1.85;;;;;;;3.30;65.75;100631.25;6129958;23;20191;-72
2023/03/27 08:10:58;;;;;;;2.47;1.45;;;;;;;3.55;65.16;100635.69;6130372;23;20251;-72
2023/03/27 08:13:31;;;;;;;1.65;1.27;;;;;;;3.70;64.13;100627.88;6129609;23;20163;-70
2023/03/27 08:16:06;;;;;;;2.05;1.70;;;;;;;3.70;64.21;100639.41;6130533;23;20198;-71
2023/03/27 08:18:36;;;;;;;3.25;2.20;;;;;;;4.06;62.72;100639.16;6155990;23;20183;-72
2023/03/27 08:21:09;;;;;;;2.13;1.92;;;;;;;4.18;61.52;100637.78;6129924;23;20561;-72
2023/03/27 08:23:39;;;;;;;4.07;1.45;;;;;;;4.68;61.12;100640.28;6129920;23;20256;-70
2023/03/27 08:26:10;;;;;;;2.17;1.38;;;;;;;4.34;60.62;100640.47;6156105;23;20621;-72
2023/03/27 08:28:46;;;;;;;1.63;1.33;;;;;;;3.86;60.38;100643.97;6129980;23;20192;-72
2023/03/27 08:31:17;;;;;;;4.47;2.15;;;;;;;4.02;61.06;100627.91;6130622;23;20172;-71
2023/03/27 08:33:46;;;;;;;2.33;1.52;;;;;;;4.02;60.88;100643.16;6129958;23;20172;-71
2023/03/27 08:36:22;;;;;;;3.20;1.30;;;;;;;4.05;61.17;100650.84;6133364;23;20664;-74
2023/03/27 08:38:54;;;;;;;5.15;1.23;;;;;;;4.19;60.43;100656.38;6131224;23;20196;-73
2023/03/27 08:41:39;;;;;;;1.73;1.20;;;;;;;4.09;60.49;100654.88;6130397;23;20280;-69
2023/03/27 08:44:24;;;;;;;2.35;1.55;;;;;;;4.33;59.84;100657.56;6130316;23;20199;-70
2023/03/27 08:46:57;;;;;;;3.10;1.70;;;;;;;3.96;59.86;100660.72;6130495;23;20168;-72
2023/03/27 08:49:32;;;;;;;1.10;1.00;;;;;;;4.17;59.57;100668.25;6155593;23;20190;-71
2023/03/27 08:52:26;;;;;;;1.95;1.48;;;;;;;4.08;60.17;100674.59;6139839;23;20171;-71
2023/03/27 08:55:00;;;;;;;6.75;2.33;;;;;;;4.12;60.83;100681.31;6129742;23;20175;-72
2023/03/27 08:57:49;;;;;;;2.40;1.40;;;;;;;4.60;59.83;100685.88;6129016;23;20290;-71
2023/03/27 09:00:26;;;;;;;7.78;1.67;;;;;;;4.95;59.13;100676.56;6129170;23;20170;-73
2023/03/27 09:03:20;;;;;;;2.35;1.42;;;;;;;4.84;58.76;100682.31;6155041;23;20171;-72
2023/03/27 09:05:57;;;;;;;1.70;1.20;;;;;;;4.39;57.56;100686.38;6155010;23;20168;-72
2023/03/27 09:08:42;;;;;;;1.95;1.10;;;;;;;4.91;57.93;100677.94;6129220;23;20242;-73
2023/03/27 09:11:26;;;;;;;2.88;1.60;;;;;;;5.37;55.36;100682.50;6129184;23;20180;-71
2023/03/27 09:14:04;;;;;;;2.47;1.60;;;;;;;5.58;54.53;100682.72;6155234;23;20164;-72
2023/03/27 09:16:38;;;;;;;1.85;1.23;;;;;;;5.42;56.34;100688.16;6129044;23;20189;-72
2023/03/27 09:19:15;;;;;;;1.65;1.55;;;;;;;5.08;56.85;100691.13;6156019;23;20513;-71
2023/03/27 09:21:50;;;;;;;2.78;1.38;;;;;;;4.95;57.62;100695.34;6130643;23;20168;-72
2023/03/27 09:24:41;;;;;;;2.42;1.67;;;;;;;4.67;56.21;100695.72;6129025;23;20168;-72
2023/03/27 09:27:34;;;;;;;9.45;2.00;;;;;;;4.45;56.48;100704.47;6129859;23;20600;-72
2023/03/27 09:30:24;;;;;;;3.28;1.70;;;;;;;4.77;55.74;100693.72;6129369;23;20175;-72
2023/03/27 09:33:13;;;;;;;7.72;7.07;;;;;;;5.27;55.15;100700.66;6155448;23;20177;-72
2023/03/27 09:35:45;;;;;;;2.13;1.60;;;;;;;5.31;54.69;100704.66;6129522;23;20216;-72
2023/03/27 09:38:28;;;;;;;2.63;1.67;;;;;;;5.55;53.85;100704.56;6129658;23;20193;-72
2023/03/27 09:41:01;;;;;;;5.20;1.58;;;;;;;5.47;54.71;100709.94;6129410;23;20177;-71
2023/03/27 09:43:40;;;;;;;2.60;1.88;;;;;;;5.59;54.23;100699.69;6156178;23;20153;-72
2023/03/27 09:46:16;;;;;;;4.32;1.80;;;;;;;5.08;54.63;100706.41;6129783;23;20610;-71
2023/03/27 09:48:56;;;;;;;1.70;1.30;;;;;;;4.79;53.61;100713.13;6129971;23;20196;-73
2023/03/27 09:51:45;;;;;;;2.03;1.02;;;;;;;5.05;52.39;100706.72;6155351;23;20184;-72
2023/03/27 09:54:52;;;;;;;1.90;1.00;;;;;;;5.61;52.24;100703.88;6133879;23;20180;-72
2023/03/27 09:57:32;;;;;;;2.00;1.30;;;;;;;6.40;51.06;100710.78;6129028;23;20234;-72
2023/03/27 10:00:13;;;;;;;4.03;0.90;;;;;;;6.12;47.70;100717.72;6129747;23;20216;-71
2023/03/27 10:03:04;;;;;;;3.17;1.25;;;;;;;6.07;47.46;100714.72;6129218;23;20611;-72
2023/03/27 10:05:37;;;;;;;2.45;1.80;;;;;;;6.28;47.45;100714.94;6130241;23;20714;-72
2023/03/27 10:08:30;;;;;;;1.75;1.20;;;;;;;6.51;46.58;100715.75;6130052;23;20193;-72
2023/03/27 10:11:14;;;;;;;1.70;1.40;;;;;;;6.45;46.94;100715.63;6129874;23;20244;-72
2023/03/27 10:13:50;;;;;;;2.83;1.70;;;;;;;5.58;49.54;100716.78;6128901;23;20244;-69
2023/03/27 10:16:23;;;;;;;5.30;1.30;;;;;;;5.25;50.66;100727.63;6155294;23;20174;-72
2023/03/27 10:19:02;;;;;;;2.00;1.30;;;;;;;4.91;51.17;100727.03;6154856;23;20601;-72
2023/03/27 10:21:42;;;;;;;1.15;1.00;;;;;;;4.99;51.93;100745.78;6128653;23;20173;-70
2023/03/27 10:24:26;;;;;;;2.47;1.63;;;;;;;5.46;50.59;100727.09;6128644;23;20169;-72
2023/03/27 10:27:10;;;;;;;5.03;2.17;;;;;;;5.86;48.51;100733.25;6155460;23;20156;-71
2023/03/27 10:29:51;;;;;;;4.82;1.15;;;;;;;5.99;46.14;100715.63;6128956;23;20188;-71
2023/03/27 10:32:40;;;;;;;1.75;1.27;;;;;;;6.12;46.58;100720.41;6129542;23;20248;-70
2023/03/27 10:35:34;;;;;;;1.90;1.35;;;;;;;5.99;46.46;100738.97;6154583;23;20207;-73
2023/03/27 10:38:27;;;;;;;2.55;1.52;;;;;;;5.26;48.04;100725.78;6146449;23;20251;-70
2023/03/27 10:41:13;;;;;;;18.13;7.47;;;;;;;5.52;48.24;100736.25;6099757;23;20247;-71
2023/03/27 10:43:50;;;;;;;1.30;1.17;;;;;;;6.00;46.46;100740.63;6123450;23;20165;-73
2023/03/27 10:46:21;;;;;;;1.45;0.98;;;;;;;5.86;44.83;100744.00;6100057;23;20177;-72
2023/03/27 10:48:58;;;;;;;4.05;1.55;;;;;;;6.03;45.20;100741.13;6124783;23;20273;-71
2023/03/27 10:51:46;;;;;;;1.10;0.98;;;;;;;5.89;46.73;100749.06;6099152;23;20189;-73
2023/03/27 10:54:34;;;;;;;1.98;1.33;;;;;;;5.73;48.59;100749.09;6099771;23;20618;-71
2023/03/27 10:57:09;;;;;;;1.40;0.90;;;;;;;6.20;45.13;100768.69;6099493;23;20669;-71
2023/03/27 11:00:09;;;;;;;1.05;0.80;;;;;;;6.30;44.06;100747.81;5109240;27;20290;-69
2023/03/27 11:02:52;;;;;;;3.65;1.23;;;;;;;7.10;43.68;100747.34;5093355;28;20194;-70
2023/03/27 11:05:29;;;;;;;1.42;1.13;;;;;;;7.29;42.34;100758.44;5102236;28;20256;-71
2023/03/27 11:08:07;;;;;;;1.60;1.48;;;;;;;7.14;41.68;100762.09;5100994;28;20283;-71
2023/03/27 11:10:43;;;;;;;5.10;1.65;;;;;;;6.50;41.14;100757.09;5078508;28;20614;-71
2023/03/27 11:13:30;;;;;;;2.60;1.05;;;;;;;6.65;41.81;100743.72;5088867;28;20293;-71
2023/03/27 11:16:17;;;;;;;2.70;1.00;;;;;;;7.22;41.44;100744.00;5097891;28;20176;-71
2023/03/27 11:19:34;;;;;;;1.80;1.35;;;;;;;6.87;41.88;100750.09;5055981;28;20580;-71
2023/03/27 11:22:29;;;;;;;4.25;2.30;;;;;;;7.42;42.69;100742.47;5070058;28;20297;-71
2023/03/27 11:25:05;;;;;;;3.58;2.05;;;;;;;7.46;41.69;100767.16;5071168;28;20200;-72
2023/03/27 11:27:40;;;;;;;1.35;1.25;;;;;;;6.67;42.00;100743.53;5069871;28;20661;-70
2023/03/27 11:30:43;;;;;;;4.30;1.27;;;;;;;6.36;43.13;100747.13;5079798;28;20606;-71
2023/03/27 11:33:34;;;;;;;2.53;1.10;;;;;;;6.30;42.95;100758.56;5026286;28;20245;-70
2023/03/27 11:36:21;;;;;;;1.75;1.20;;;;;;;6.23;43.20;100768.38;5072052;28;20204;-70
2023/03/27 11:39:07;;;;;;;1.55;1.00;;;;;;;6.65;42.15;100759.00;5072573;28;20268;-69
2023/03/27 11:41:37;;;;;;;2.10;1.08;;;;;;;6.65;41.47;100761.69;5072444;28;20202;-70
2023/03/27 11:44:06;;;;;;;1.52;1.00;;;;;;;6.72;41.66;100768.03;5099554;28;20204;-71
2023/03/27 11:47:37;;;;;;;2.17;1.27;;;;;;;6.62;41.47;100764.75;4999814;28;20206;-70
2023/03/27 11:50:26;;;;;;;1.50;1.00;;;;;;;6.25;42.77;100777.06;4984376;28;20265;-70
2023/03/27 11:53:20;;;;;;;2.38;1.17;;;;;;;6.92;43.05;100759.25;5059960;28;20203;-70
2023/03/27 11:56:24;;;;;;;1.40;1.10;;;;;;;7.53;41.85;100756.47;5088961;28;20279;-70
2023/03/27 11:59:16;;;;;;;2.78;1.33;;;;;;;7.45;41.66;100759.28;5070429;28;20329;-70
2023/03/27 12:02:03;;;;;;;2.95;1.25;;;;;;;7.40;40.19;100760.66;5069027;28;20675;-71
2023/03/27 12:04:43;;;;;;;1.50;1.00;;;;;;;6.62;40.57;100762.06;5070248;28;20199;-71
2023/03/27 12:07:51;;;;;;;1.40;0.90;;;;;;;6.44;42.84;100767.72;5089634;28;20197;-71
2023/03/27 12:10:33;;;;;;;2.35;0.90;;;;;;;6.45;43.33;100759.47;5073484;28;20197;-70
2023/03/27 12:13:40;;;;;;;1.65;1.05;;;;;;;6.89;42.71;100758.81;5051835;28;20292;-69
2023/03/27 12:16:49;;;;;;;1.95;1.58;;;;;;;6.92;42.40;100769.22;5073528;28;20666;-71
2023/03/27 12:19:48;;;;;;;1.30;1.00;;;;;;;6.80;42.51;100763.41;5069112;28;20219;-70
2023/03/27 12:22:36;;;;;;;2.67;1.50;;;;;;;7.13;41.91;100771.19;5054192;28;20252;-71
2023/03/27 12:25:40;;;;;;;4.90;1.10;;;;;;;7.12;42.71;100762.28;5056552;28;20202;-72
2023/03/27 12:28:41;;;;;;;1.60;1.05;;;;;;;7.39;42.09;100767.06;5069374;28;20417;-72